Time;durP1;ratioP1;P1;durP2;ratioP2;P2;SDS_P1;SDS_P2;PMS_P1;PMS_P2;Temp;Humidity;BMP_temperature;BMP_pressure;BME280_temperature;BME280_humidity;BME280_pressure;Samples;Min_cycle;Max_cycle;Signal;HPM_P1;HPM_P2
2022/09/11 00:02:06;;;;;;;3.33;3.03;;;20.00;93.20;;;;;;4983045;28;20477;-71
2022/09/11 00:04:32;;;;;;;3.67;3.20;;;20.00;93.20;;;;;;4946370;29;20544;-71
2022/09/11 00:07:00;;;;;;;6.33;3.73;;;20.00;93.20;;;;;;4953616;28;20470;-71
2022/09/11 00:09:28;;;;;;;3.70;3.00;;;20.00;93.20;;;;;;4962299;28;20947;-71
2022/09/11 00:11:54;;;;;;;3.70;3.40;;;20.00;93.20;;;;;;4954629;28;20506;-71
2022/09/11 00:14:25;;;;;;;3.77;3.20;;;20.00;93.20;;;;;;4985202;28;20580;-71
2022/09/11 00:16:51;;;;;;;5.80;3.20;;;20.00;93.20;;;;;;4969341;28;20454;-71
2022/09/11 00:19:20;;;;;;;3.90;3.50;;;20.00;93.20;;;;;;4935856;29;20466;-71
2022/09/11 00:21:55;;;;;;;3.43;3.13;;;20.00;93.20;;;;;;4948708;28;20198;-71
2022/09/11 00:24:24;;;;;;;3.73;3.30;;;20.00;93.20;;;;;;4954761;28;20504;-71
2022/09/11 00:26:50;;;;;;;4.83;3.40;;;20.00;93.20;;;;;;4941204;28;20453;-72
2022/09/11 00:29:28;;;;;;;3.87;3.57;;;20.00;93.20;;;;;;4985222;28;20873;-72
2022/09/11 00:31:56;;;;;;;5.53;3.30;;;19.90;93.20;;;;;;4976412;28;20475;-71
2022/09/11 00:34:27;;;;;;;4.10;3.20;;;19.90;93.20;;;;;;4971716;28;20495;-71
2022/09/11 00:36:53;;;;;;;5.57;3.60;;;19.90;93.20;;;;;;4941987;28;20489;-71
2022/09/11 00:39:28;;;;;;;3.40;2.70;;;19.90;93.20;;;;;;4920122;28;20434;-71
2022/09/11 00:41:59;;;;;;;4.17;3.40;;;19.90;93.30;;;;;;4937829;29;20443;-71
2022/09/11 00:44:26;;;;;;;3.77;3.33;;;19.90;93.20;;;;;;4962245;28;20509;-71
2022/09/11 00:47:02;;;;;;;4.27;3.87;;;19.90;93.30;;;;;;4955986;28;20449;-71
2022/09/11 00:49:41;;;;;;;3.50;3.20;;;19.90;93.20;;;;;;4948786;28;20501;-71
2022/09/11 00:52:25;;;;;;;4.10;3.70;;;19.90;93.20;;;;;;4977250;28;20424;-71
2022/09/11 00:54:58;;;;;;;3.87;3.47;;;19.90;93.20;;;;;;4981222;28;20448;-71
2022/09/11 00:57:31;;;;;;;5.43;3.50;;;19.90;93.20;;;;;;4973683;28;20410;-71
2022/09/11 00:59:59;;;;;;;4.17;3.67;;;19.90;93.30;;;;;;4945709;29;20480;-71
2022/09/11 01:02:28;;;;;;;5.90;3.33;;;19.90;93.20;;;;;;4947238;29;20431;-71
2022/09/11 01:04:56;;;;;;;3.87;3.47;;;19.90;93.20;;;;;;4937120;29;20430;-71
2022/09/11 01:07:27;;;;;;;3.70;3.40;;;19.90;93.30;;;;;;4936657;28;20538;-71
2022/09/11 01:09:54;;;;;;;3.97;3.57;;;19.90;93.20;;;;;;4940382;28;20446;-71
2022/09/11 01:12:30;;;;;;;4.40;3.20;;;19.90;93.20;;;;;;4932081;28;20995;-71
2022/09/11 01:15:06;;;;;;;3.53;3.23;;;19.90;93.20;;;;;;4953540;29;20438;-71
2022/09/11 01:17:50;;;;;;;4.00;3.20;;;19.90;93.20;;;;;;4935948;28;20434;-71
2022/09/11 01:20:35;;;;;;;4.70;3.77;;;19.90;93.20;;;;;;4956205;28;20809;-71
2022/09/11 01:23:16;;;;;;;3.97;3.57;;;19.90;93.20;;;;;;4961616;28;20521;-71
2022/09/11 01:26:13;;;;;;;3.60;3.07;;;19.90;93.20;;;;;;4969981;28;20467;-71
2022/09/11 01:29:00;;;;;;;6.60;4.00;;;19.90;93.20;;;;;;4971967;28;20411;-71
2022/09/11 01:31:35;;;;;;;4.30;3.90;;;19.90;93.20;;;;;;4932469;29;20451;-71
2022/09/11 01:34:14;;;;;;;4.20;3.80;;;19.80;93.20;;;;;;4953163;28;20445;-71
2022/09/11 01:36:54;;;;;;;4.30;3.90;;;19.80;93.20;;;;;;4966822;28;20742;-71
2022/09/11 01:39:26;;;;;;;3.67;3.37;;;19.80;93.20;;;;;;4938759;28;20893;-71
2022/09/11 01:42:01;;;;;;;4.80;3.60;;;19.80;93.30;;;;;;4961065;28;20479;-71
2022/09/11 01:44:35;;;;;;;4.97;3.77;;;19.80;93.20;;;;;;4921036;29;20521;-71
2022/09/11 01:47:06;;;;;;;3.83;3.53;;;19.80;93.20;;;;;;4941940;28;20436;-71
2022/09/11 01:49:34;;;;;;;4.73;3.67;;;19.80;93.20;;;;;;4972985;28;20940;-71
2022/09/11 01:52:06;;;;;;;4.23;3.83;;;19.80;93.20;;;;;;4938497;28;20473;-71
2022/09/11 01:54:40;;;;;;;4.33;3.93;;;19.80;93.20;;;;;;4936547;29;20512;-71
2022/09/11 01:57:41;;;;;;;5.10;4.20;;;19.80;93.20;;;;;;4932151;28;20457;-71
2022/09/11 02:00:28;;;;;;;5.17;3.93;;;19.80;93.20;;;;;;4957927;28;20488;-71
2022/09/11 02:03:05;;;;;;;4.20;3.90;;;19.80;93.30;;;;;;4962648;28;20407;-71
2022/09/11 02:05:42;;;;;;;4.70;4.20;;;19.80;93.30;;;;;;4964490;28;20461;-71
2022/09/11 02:08:29;;;;;;;5.03;4.57;;;19.80;93.20;;;;;;4955699;28;20478;-71
2022/09/11 02:11:06;;;;;;;4.40;4.00;;;19.80;93.20;;;;;;4956502;28;20561;-71
2022/09/11 02:13:50;;;;;;;5.00;4.50;;;19.80;93.20;;;;;;4923255;28;20574;-71
2022/09/11 02:16:24;;;;;;;4.77;4.13;;;19.80;93.20;;;;;;4970567;28;20466;-71
2022/09/11 02:19:05;;;;;;;4.07;3.77;;;19.80;93.20;;;;;;4975452;28;20434;-71
2022/09/11 02:21:36;;;;;;;4.13;3.57;;;19.80;93.20;;;;;;4936697;29;20510;-71
2022/09/11 02:24:03;;;;;;;5.60;4.33;;;19.80;93.20;;;;;;4936230;28;20462;-71
2022/09/11 02:26:38;;;;;;;5.37;4.57;;;19.80;93.20;;;;;;4951170;28;20465;-71
2022/09/11 02:29:07;;;;;;;4.53;3.97;;;19.80;93.20;;;;;;4970564;28;20473;-71
2022/09/11 02:31:35;;;;;;;4.40;4.00;;;19.80;93.20;;;;;;4982908;28;20778;-71
2022/09/11 02:34:02;;;;;;;7.73;4.03;;;19.80;93.20;;;;;;4939709;29;20465;-71
2022/09/11 02:36:31;;;;;;;5.30;4.70;;;19.80;93.20;;;;;;4926409;28;20528;-71
2022/09/11 02:39:35;;;;;;;6.17;5.00;;;19.80;93.20;;;;;;4942540;28;20425;-71
2022/09/11 02:42:32;;;;;;;7.53;4.50;;;19.80;93.30;;;;;;4947699;28;20775;-71
2022/09/11 02:45:14;;;;;;;4.90;4.40;;;19.70;93.20;;;;;;4943372;28;20877;-71
2022/09/11 02:48:05;;;;;;;5.03;4.63;;;19.70;93.20;;;;;;4958934;28;20553;-71
2022/09/11 02:50:38;;;;;;;5.10;4.60;;;19.70;93.30;;;;;;4924715;29;20436;-71
2022/09/11 02:53:28;;;;;;;5.07;4.63;;;19.70;93.30;;;;;;4951436;28;20438;-71
2022/09/11 02:56:22;;;;;;;5.20;4.03;;;19.70;93.30;;;;;;4977944;28;20558;-71
2022/09/11 02:58:55;;;;;;;5.70;4.47;;;19.70;93.30;;;;;;4943877;28;20808;-71
2022/09/11 03:01:30;;;;;;;5.03;4.63;;;19.70;93.40;;;;;;4958469;28;20403;-71
2022/09/11 03:03:57;;;;;;;5.50;4.63;;;19.70;93.40;;;;;;4959325;28;20439;-71
2022/09/11 03:06:26;;;;;;;5.73;5.23;;;19.70;93.30;;;;;;4951731;29;20473;-71
2022/09/11 03:08:52;;;;;;;5.60;5.00;;;19.70;93.30;;;;;;4928692;28;20438;-71
2022/09/11 03:11:19;;;;;;;6.60;5.40;;;19.70;93.40;;;;;;4960728;28;20825;-71
2022/09/11 03:13:53;;;;;;;5.83;5.27;;;19.70;93.30;;;;;;4960457;28;20461;-72
2022/09/11 03:16:19;;;;;;;5.70;5.20;;;19.70;93.30;;;;;;4936588;29;20482;-71
2022/09/11 03:18:45;;;;;;;7.10;5.87;;;19.70;93.30;;;;;;4922881;29;20522;-71
2022/09/11 03:21:15;;;;;;;5.90;5.30;;;19.70;93.30;;;;;;4936168;28;20452;-71
2022/09/11 03:23:44;;;;;;;5.50;4.97;;;19.70;93.30;;;;;;4943757;28;20463;-71
2022/09/11 03:26:10;;;;;;;5.90;5.30;;;19.70;93.40;;;;;;4955975;29;20924;-71
2022/09/11 03:28:38;;;;;;;5.80;4.97;;;19.70;93.40;;;;;;5025078;23;20498;-73
2022/09/11 03:31:10;;;;;;;6.50;5.87;;;19.70;93.40;;;;;;4986495;28;20495;-73
2022/09/11 03:33:39;;;;;;;8.03;6.33;;;19.70;93.70;;;;;;4976211;28;20425;-73
2022/09/11 03:36:07;;;;;;;8.13;6.63;;;19.70;93.40;;;;;;4993367;28;20457;-73
2022/09/11 03:38:33;;;;;;;9.43;6.50;;;19.70;93.40;;;;;;4990262;28;20457;-73
2022/09/11 03:41:02;;;;;;;6.70;6.00;;;19.70;93.70;;;;;;4974027;28;20399;-73
2022/09/11 03:43:33;;;;;;;8.13;6.07;;;19.70;93.40;;;;;;4971631;28;20993;-72
2022/09/11 03:45:59;;;;;;;8.90;6.83;;;19.70;93.40;;;;;;4989399;28;20888;-73
2022/09/11 03:48:26;;;;;;;10.23;6.83;;;19.70;93.40;;;;;;4957738;28;20427;-73
2022/09/11 03:50:54;;;;;;;9.37;6.80;;;19.70;93.40;;;;;;4974713;28;20889;-73
2022/09/11 03:53:20;;;;;;;12.97;8.43;;;19.70;93.40;;;;;;4960866;28;20498;-74
2022/09/11 03:55:49;;;;;;;13.07;9.30;;;19.60;93.30;;;;;;4938700;28;20482;-74
2022/09/11 03:58:17;;;;;;;13.30;8.50;;;19.70;93.40;;;;;;4992779;28;20406;-73
2022/09/11 04:00:45;;;;;;;16.47;10.53;;;19.70;93.40;;;;;;4967967;28;20451;-73
2022/09/11 04:03:14;;;;;;;15.10;10.10;;;19.70;93.40;;;;;;4976524;28;20950;-73
2022/09/11 04:05:57;;;;;;;15.20;9.57;;;19.70;93.40;;;;;;4975195;28;21029;-73
2022/09/11 04:08:23;;;;;;;15.03;9.70;;;19.60;93.40;;;;;;4991120;28;20437;-74
2022/09/11 04:11:02;;;;;;;16.50;9.80;;;19.60;93.40;;;;;;4974799;28;20453;-74
2022/09/11 04:13:34;;;;;;;17.70;11.23;;;19.60;93.40;;;;;;4959442;28;20537;-74
2022/09/11 04:16:17;;;;;;;15.90;11.17;;;19.60;93.40;;;;;;4969925;28;20842;-73
2022/09/11 04:18:47;;;;;;;21.20;12.10;;;19.60;93.40;;;;;;4972850;28;20415;-73
2022/09/11 04:21:20;;;;;;;21.57;12.23;;;19.60;93.40;;;;;;4972484;28;20391;-73
2022/09/11 04:23:58;;;;;;;24.80;14.33;;;19.60;93.40;;;;;;4957572;28;20859;-73
2022/09/11 04:26:31;;;;;;;28.03;15.97;;;19.60;93.40;;;;;;4966104;28;20463;-73
2022/09/11 04:29:04;;;;;;;23.27;15.40;;;19.60;93.50;;;;;;4968449;28;20456;-73
2022/09/11 04:31:37;;;;;;;29.57;16.20;;;19.60;93.50;;;;;;4990800;28;20857;-73
2022/09/11 04:34:06;;;;;;;29.20;15.87;;;19.60;93.40;;;;;;4975182;28;20450;-73
2022/09/11 04:36:35;;;;;;;34.00;15.93;;;19.60;93.50;;;;;;4963276;28;20472;-73
2022/09/11 04:39:01;;;;;;;27.80;16.93;;;19.60;93.50;;;;;;4975069;28;20421;-73
2022/09/11 04:41:28;;;;;;;30.93;17.47;;;19.60;93.50;;;;;;4975002;28;20436;-73
2022/09/11 04:44:01;;;;;;;30.30;16.70;;;19.60;93.40;;;;;;4957119;28;20498;-73
2022/09/11 04:46:28;;;;;;;36.00;19.67;;;19.60;93.50;;;;;;4974968;28;20446;-74
2022/09/11 04:48:58;;;;;;;30.60;17.20;;;19.60;93.50;;;;;;4956454;28;20426;-73
2022/09/11 04:51:29;;;;;;;32.57;17.80;;;19.60;93.50;;;;;;4978576;28;20921;-73
2022/09/11 04:54:01;;;;;;;31.00;18.03;;;19.60;93.50;;;;;;4956842;28;20470;-73
2022/09/11 04:56:40;;;;;;;38.37;19.60;;;19.60;93.50;;;;;;4966832;28;20469;-73
2022/09/11 04:59:21;;;;;;;33.43;18.47;;;19.60;93.50;;;;;;4976075;28;20408;-74
2022/09/11 05:02:03;;;;;;;33.67;20.37;;;19.60;93.50;;;;;;4966446;28;20931;-73
2022/09/11 05:04:34;;;;;;;34.90;20.07;;;19.60;93.50;;;;;;4976051;28;20875;-73
2022/09/11 05:07:04;;;;;;;36.80;20.47;;;19.60;93.50;;;;;;4990266;28;20461;-73
2022/09/11 05:09:30;;;;;;;35.87;20.63;;;19.60;93.50;;;;;;4964797;28;20505;-73
2022/09/11 05:12:04;;;;;;;37.50;21.13;;;19.60;93.60;;;;;;4966734;28;20440;-73
2022/09/11 05:14:35;;;;;;;34.20;20.67;;;19.60;93.60;;;;;;4961704;28;20450;-73
2022/09/11 05:17:02;;;;;;;39.33;21.30;;;19.60;93.60;;;;;;4975161;28;20805;-73
2022/09/11 05:19:34;;;;;;;39.67;20.33;;;19.50;93.50;;;;;;4989724;28;20435;-73
2022/09/11 05:22:03;;;;;;;37.60;20.90;;;19.50;93.60;;;;;;4991417;28;20799;-73
2022/09/11 05:24:29;;;;;;;43.40;21.70;;;19.50;93.60;;;;;;4972673;28;20461;-74
2022/09/11 05:27:00;;;;;;;42.27;22.57;;;19.60;93.60;;;;;;4940480;29;21317;-73
2022/09/11 05:32:15;;;;;;;39.23;23.20;;;19.50;93.60;;;;;;4990419;28;20435;-73
2022/09/11 05:34:43;;;;;;;41.40;22.27;;;19.50;93.50;;;;;;4944058;28;20459;-74
2022/09/11 05:37:14;;;;;;;39.33;22.87;;;19.50;93.50;;;;;;4952746;28;20583;-73
2022/09/11 05:39:44;;;;;;;39.67;21.60;;;19.50;93.60;;;;;;4963163;28;20442;-73
2022/09/11 05:42:12;;;;;;;36.50;21.47;;;19.50;93.60;;;;;;4970064;28;21024;-72
2022/09/11 05:44:42;;;;;;;36.83;22.60;;;19.50;93.60;;;;;;4956919;28;20450;-73
2022/09/11 05:47:13;;;;;;;40.60;23.23;;;19.50;93.60;;;;;;4954105;28;20406;-72
2022/09/11 05:49:43;;;;;;;38.03;22.67;;;19.50;93.60;;;;;;4968791;28;20436;-74
2022/09/11 05:52:15;;;;;;;36.37;22.40;;;19.50;93.60;;;;;;4964213;28;20462;-73
2022/09/11 05:54:46;;;;;;;35.70;21.57;;;19.50;93.60;;;;;;4979014;28;20457;-73
2022/09/11 05:57:18;;;;;;;35.33;19.60;;;19.50;93.60;;;;;;4973455;28;20439;-77
2022/09/11 05:59:44;;;;;;;41.50;21.33;;;19.50;93.60;;;;;;4981356;28;20480;-77
2022/09/11 06:02:13;;;;;;;34.63;20.90;;;19.50;93.60;;;;;;4978558;28;20422;-75
2022/09/11 06:04:48;;;;;;;38.63;22.00;;;19.50;93.60;;;;;;4952095;28;20481;-77
2022/09/11 06:07:19;;;;;;;36.47;20.87;;;19.50;93.60;;;;;;4958089;28;20544;-76
2022/09/11 06:09:47;;;;;;;37.93;21.43;;;19.50;93.60;;;;;;4975267;28;20426;-79
2022/09/11 06:12:17;;;;;;;38.00;22.33;;;19.50;93.60;;;;;;4976410;28;20441;-77
2022/09/11 06:14:48;;;;;;;40.33;22.00;;;19.50;94.00;;;;;;4956119;28;20997;-74
2022/09/11 06:17:22;;;;;;;37.73;20.50;;;19.50;93.70;;;;;;4940289;29;20909;-73
2022/09/11 06:19:51;;;;;;;36.87;22.50;;;19.50;93.70;;;;;;4958050;28;20421;-74
2022/09/11 06:22:17;;;;;;;44.10;21.03;;;19.50;93.70;;;;;;4947453;29;21019;-74
2022/09/11 06:24:45;;;;;;;33.57;21.17;;;19.50;93.70;;;;;;4957550;28;20840;-74
2022/09/11 06:27:14;;;;;;;38.27;21.33;;;19.50;93.70;;;;;;4993903;28;20455;-73
2022/09/11 06:29:48;;;;;;;31.10;19.57;;;19.50;93.70;;;;;;4962072;28;20432;-74
2022/09/11 06:32:18;;;;;;;38.17;21.57;;;19.50;93.70;;;;;;4976666;28;20448;-74
2022/09/11 06:34:47;;;;;;;34.13;22.00;;;19.50;93.70;;;;;;4964263;28;20485;-73
2022/09/11 06:37:16;;;;;;;35.00;22.03;;;19.50;93.70;;;;;;4938219;29;20424;-73
2022/09/11 06:39:45;;;;;;;36.00;20.63;;;19.50;93.80;;;;;;4942143;28;20969;-74
2022/09/11 06:42:18;;;;;;;36.73;21.43;;;19.50;93.70;;;;;;4973745;28;20395;-74
2022/09/11 06:44:54;;;;;;;36.53;20.47;;;19.50;93.80;;;;;;4982747;28;20440;-74
2022/09/11 06:47:22;;;;;;;37.43;22.30;;;19.50;93.70;;;;;;4979854;28;20433;-73
2022/09/11 06:49:48;;;;;;;37.70;21.10;;;19.50;93.70;;;;;;4959877;28;20410;-74
2022/09/11 06:52:37;;;;;;;39.00;23.40;;;19.50;93.70;;;;;;4955682;28;20454;-74
2022/09/11 06:55:16;;;;;;;38.97;23.77;;;19.50;93.80;;;;;;4963705;28;20484;-73
2022/09/11 06:57:52;;;;;;;37.20;22.77;;;19.50;94.00;;;;;;4993124;28;20457;-73
2022/09/11 07:00:28;;;;;;;40.60;24.27;;;19.50;94.20;;;;;;4957483;28;20863;-74
2022/09/11 07:02:55;;;;;;;41.10;23.27;;;19.50;94.20;;;;;;4979045;28;20799;-74
2022/09/11 07:05:23;;;;;;;41.80;23.77;;;19.50;94.30;;;;;;4993654;28;20455;-74
2022/09/11 07:07:54;;;;;;;42.73;25.50;;;19.50;94.30;;;;;;4982196;28;20786;-74
2022/09/11 07:10:22;;;;;;;43.03;25.47;;;19.50;94.40;;;;;;4989449;28;20440;-74
2022/09/11 07:13:12;;;;;;;40.80;25.47;;;19.50;94.50;;;;;;4974309;28;20415;-74
2022/09/11 07:15:39;;;;;;;44.00;26.47;;;19.50;94.50;;;;;;4977570;28;20505;-74
2022/09/11 07:18:11;;;;;;;48.60;26.93;;;19.50;94.50;;;;;;4977412;28;20421;-74
2022/09/11 07:20:41;;;;;;;46.10;25.80;;;19.50;94.70;;;;;;4974579;28;20477;-74
2022/09/11 07:23:10;;;;;;;40.03;25.80;;;19.50;94.70;;;;;;4960193;28;20464;-74
2022/09/11 07:25:42;;;;;;;45.20;25.27;;;19.50;94.70;;;;;;4937861;29;20459;-73
2022/09/11 07:28:11;;;;;;;51.53;28.53;;;19.50;94.70;;;;;;4969432;28;20839;-74
2022/09/11 07:30:42;;;;;;;53.03;31.50;;;19.50;94.70;;;;;;4976477;28;20464;-74
2022/09/11 07:33:08;;;;;;;46.67;27.93;;;19.50;94.80;;;;;;4981348;28;20415;-73
2022/09/11 07:35:59;;;;;;;50.33;29.70;;;19.50;94.80;;;;;;4974653;28;21088;-74
2022/09/11 07:38:30;;;;;;;50.93;28.70;;;19.50;94.90;;;;;;4981819;28;20818;-74
2022/09/11 07:40:59;;;;;;;51.00;30.40;;;19.50;94.90;;;;;;4993157;28;20830;-74
2022/09/11 07:43:26;;;;;;;50.03;30.00;;;19.50;95.00;;;;;;4978129;28;20569;-73
2022/09/11 07:45:55;;;;;;;55.27;31.13;;;19.50;95.00;;;;;;4973561;28;20407;-73
2022/09/11 07:48:21;;;;;;;55.40;31.10;;;19.50;95.10;;;;;;4985846;28;20443;-73
2022/09/11 07:51:01;;;;;;;56.00;33.60;;;19.50;95.10;;;;;;4973618;28;20781;-73
2022/09/11 07:53:33;;;;;;;52.10;30.03;;;19.50;95.10;;;;;;4987160;28;20427;-73
2022/09/11 07:56:02;;;;;;;55.70;31.93;;;19.50;95.10;;;;;;4992649;28;20456;-74
2022/09/11 07:58:36;;;;;;;56.00;32.20;;;19.50;95.20;;;;;;4978604;28;20428;-74
2022/09/11 08:01:13;;;;;;;61.90;34.77;;;19.50;95.20;;;;;;4976676;28;20400;-73
2022/09/11 08:03:39;;;;;;;50.77;32.07;;;19.50;95.20;;;;;;4977649;28;20508;-73
2022/09/11 08:06:28;;;;;;;52.20;34.03;;;19.50;95.30;;;;;;4992605;28;20429;-74
2022/09/11 08:09:03;;;;;;;54.53;34.13;;;19.50;95.30;;;;;;4977777;28;20421;-73
2022/09/11 08:11:38;;;;;;;60.03;32.73;;;19.50;95.30;;;;;;4993413;28;20414;-73
2022/09/11 08:14:10;;;;;;;55.37;32.13;;;19.50;95.40;;;;;;4954530;28;20463;-74
2022/09/11 08:16:36;;;;;;;54.47;31.87;;;19.50;95.50;;;;;;4946144;29;21057;-73
2022/09/11 08:19:05;;;;;;;55.70;33.17;;;19.50;95.40;;;;;;4961245;28;20488;-74
2022/09/11 08:21:37;;;;;;;55.10;34.13;;;19.50;95.40;;;;;;4975986;28;20908;-73
2022/09/11 08:24:03;;;;;;;54.57;33.67;;;19.50;95.40;;;;;;4957087;28;20454;-74
2022/09/11 08:26:35;;;;;;;54.37;34.70;;;19.50;95.40;;;;;;4973130;28;20418;-73
2022/09/11 08:29:01;;;;;;;60.43;36.23;;;19.50;95.40;;;;;;4965947;28;20460;-74
2022/09/11 08:31:34;;;;;;;62.23;34.07;;;19.50;95.40;;;;;;4972732;28;20493;-73
2022/09/11 08:34:05;;;;;;;64.23;34.50;;;19.50;95.40;;;;;;4983603;28;20451;-74
2022/09/11 08:36:31;;;;;;;61.60;36.30;;;19.50;95.50;;;;;;4975773;28;20450;-74
2022/09/11 08:39:01;;;;;;;59.73;35.20;;;19.50;95.50;;;;;;4983913;28;20418;-74
2022/09/11 08:41:56;;;;;;;58.97;37.33;;;19.50;95.60;;;;;;4960528;28;20838;-74
2022/09/11 08:44:32;;;;;;;54.43;33.03;;;19.50;95.60;;;;;;4961244;28;20456;-73
2022/09/11 08:47:21;;;;;;;52.90;32.83;;;19.50;95.60;;;;;;4972387;28;20429;-73
2022/09/11 08:50:14;;;;;;;57.90;33.90;;;19.50;95.60;;;;;;4984699;28;20876;-73
2022/09/11 08:52:41;;;;;;;48.77;31.83;;;19.50;95.60;;;;;;4984439;28;20422;-73
2022/09/11 08:55:25;;;;;;;51.47;31.80;;;19.50;95.70;;;;;;4982575;28;20528;-73
2022/09/11 08:58:26;;;;;;;51.57;29.30;;;19.50;95.80;;;;;;4985790;28;20430;-73
2022/09/11 09:01:04;;;;;;;46.40;29.80;;;19.50;95.70;;;;;;4924466;29;20614;-73
2022/09/11 09:03:59;;;;;;;46.53;29.50;;;19.50;95.70;;;;;;4977403;28;20952;-73
2022/09/11 09:06:56;;;;;;;44.17;27.93;;;19.50;95.70;;;;;;4990749;28;20419;-72
2022/09/11 09:10:01;;;;;;;46.37;28.37;;;19.40;95.70;;;;;;4980501;28;20428;-73
2022/09/11 09:12:49;;;;;;;44.27;26.30;;;19.40;95.80;;;;;;4945127;28;20441;-72
2022/09/11 09:15:31;;;;;;;39.23;26.60;;;19.40;95.80;;;;;;4952502;28;20478;-76
2022/09/11 09:18:02;;;;;;;37.37;26.43;;;19.40;95.80;;;;;;4937239;29;20791;-76
2022/09/11 09:20:37;;;;;;;41.63;27.27;;;19.40;95.80;;;;;;4953638;28;20447;-73
2022/09/11 09:23:16;;;;;;;37.13;25.03;;;19.40;95.80;;;;;;4980902;28;20426;-75
2022/09/11 09:25:45;;;;;;;34.30;23.90;;;19.40;95.90;;;;;;4973465;28;20886;-75
2022/09/11 09:28:42;;;;;;;40.93;24.80;;;19.40;95.90;;;;;;4985395;28;20454;-76
2022/09/11 09:31:14;;;;;;;35.27;24.60;;;19.40;95.90;;;;;;4975326;28;20436;-77
2022/09/11 09:33:59;;;;;;;38.67;25.40;;;19.40;96.00;;;;;;4992456;28;20519;-74
2022/09/11 09:37:12;;;;;;;36.00;25.20;;;19.50;96.00;;;;;;4986651;28;20586;-72
2022/09/11 09:39:39;;;;;;;34.10;23.00;;;19.50;96.40;;;;;;4973193;28;20488;-75
2022/09/11 09:42:25;;;;;;;36.07;24.90;;;19.40;96.00;;;;;;4952889;28;20614;-74
2022/09/11 09:45:14;;;;;;;35.40;24.83;;;19.40;95.90;;;;;;4958541;28;20446;-73
2022/09/11 09:47:43;;;;;;;38.93;26.80;;;19.50;95.90;;;;;;4992914;28;20498;-72
2022/09/11 09:50:32;;;;;;;34.20;23.87;;;19.50;95.90;;;;;;4991873;28;20419;-72
2022/09/11 09:53:31;;;;;;;37.43;24.70;;;19.50;96.00;;;;;;4975885;28;20594;-71
2022/09/11 09:55:59;;;;;;;36.93;26.60;;;19.50;96.00;;;;;;4986838;28;20479;-71
2022/09/11 09:59:14;;;;;;;35.33;24.97;;;19.50;96.00;;;;;;4985769;28;20515;-72
2022/09/11 10:01:47;;;;;;;37.70;27.50;;;19.50;96.00;;;;;;4976648;28;20451;-71
2022/09/11 10:04:29;;;;;;;37.13;25.47;;;19.50;95.90;;;;;;4963897;28;20880;-72
2022/09/11 10:07:09;;;;;;;39.90;26.60;;;19.50;95.90;;;;;;4946432;28;20422;-72
2022/09/11 10:09:44;;;;;;;43.17;29.00;;;19.50;95.90;;;;;;4996176;28;20413;-72
2022/09/11 10:12:19;;;;;;;39.00;27.67;;;19.50;95.90;;;;;;4957120;28;20403;-72
2022/09/11 10:14:57;;;;;;;41.20;26.50;;;19.50;95.90;;;;;;4970605;28;20444;-72
2022/09/11 10:17:36;;;;;;;37.77;26.70;;;19.50;95.80;;;;;;4996096;28;20528;-72
2022/09/11 10:20:24;;;;;;;39.40;29.23;;;19.50;95.80;;;;;;4987606;28;20421;-72
2022/09/11 10:22:54;;;;;;;43.33;28.20;;;19.50;95.80;;;;;;4979166;28;20452;-72
2022/09/11 10:25:25;;;;;;;40.97;29.10;;;19.50;95.70;;;;;;4977162;28;20596;-75
2022/09/11 10:28:04;;;;;;;43.50;30.60;;;19.50;95.80;;;;;;4994664;28;21060;-72
2022/09/11 10:30:33;;;;;;;46.83;31.60;;;19.50;95.80;;;;;;4982172;28;20774;-72
2022/09/11 10:33:33;;;;;;;47.50;32.20;;;19.50;95.90;;;;;;4969792;28;20431;-72
2022/09/11 10:36:05;;;;;;;50.00;33.40;;;19.50;95.90;;;;;;4981224;28;20472;-72
2022/09/11 10:38:46;;;;;;;49.63;33.33;;;19.50;96.00;;;;;;4971383;28;20473;-72
2022/09/11 10:41:36;;;;;;;49.20;34.10;;;19.50;96.30;;;;;;4983857;28;20454;-72
2022/09/11 10:44:12;;;;;;;45.73;32.90;;;19.50;96.00;;;;;;4972644;28;20541;-72
2022/09/11 10:46:40;;;;;;;49.70;35.40;;;19.60;96.00;;;;;;4971560;28;20468;-72
2022/09/11 10:49:23;;;;;;;52.03;36.43;;;19.60;96.00;;;;;;4980885;28;20517;-72
2022/09/11 10:52:14;;;;;;;48.87;35.10;;;19.50;95.90;;;;;;4953375;28;20434;-72
2022/09/11 10:54:52;;;;;;;48.23;34.10;;;19.60;96.00;;;;;;4953570;28;20453;-72
2022/09/11 10:57:44;;;;;;;48.70;34.50;;;19.60;96.00;;;;;;4972337;28;20481;-72
2022/09/11 11:00:21;;;;;;;51.37;35.73;;;19.60;95.90;;;;;;4970277;28;20449;-72
2022/09/11 11:02:57;;;;;;;48.70;33.80;;;19.60;95.90;;;;;;4975325;28;20535;-72
2022/09/11 11:06:02;;;;;;;48.53;33.63;;;19.60;95.90;;;;;;4941763;28;21092;-72
2022/09/11 11:08:56;;;;;;;49.97;35.33;;;19.60;95.90;;;;;;4967912;28;20427;-72
2022/09/11 11:11:45;;;;;;;51.40;34.90;;;19.60;96.00;;;;;;4952970;28;20455;-72
2022/09/11 11:14:22;;;;;;;48.43;34.40;;;19.60;95.90;;;;;;4943360;28;20820;-72
2022/09/11 11:17:14;;;;;;;45.37;32.70;;;19.60;95.90;;;;;;4954050;28;20438;-72
2022/09/11 11:19:55;;;;;;;44.57;33.87;;;19.70;96.00;;;;;;4963605;28;20426;-72
2022/09/11 11:22:33;;;;;;;47.80;35.60;;;19.70;96.10;;;;;;4961788;28;20447;-72
2022/09/11 11:25:24;;;;;;;44.63;33.70;;;19.70;96.20;;;;;;4959275;28;20475;-72
2022/09/11 11:28:07;;;;;;;44.90;33.70;;;19.70;96.30;;;;;;4982975;28;20869;-72
2022/09/11 11:30:57;;;;;;;43.80;33.93;;;19.70;96.30;;;;;;4964398;28;20536;-72
2022/09/11 11:33:49;;;;;;;44.20;34.40;;;19.70;96.40;;;;;;4971410;28;21000;-72
2022/09/11 11:36:54;;;;;;;47.53;35.10;;;19.80;96.50;;;;;;4974691;28;20487;-72
2022/09/11 11:39:42;;;;;;;43.53;32.57;;;19.80;96.50;;;;;;4974440;28;20465;-72
2022/09/11 11:42:22;;;;;;;46.63;34.90;;;19.80;96.40;;;;;;4958821;28;20431;-72
2022/09/11 11:45:31;;;;;;;42.70;34.17;;;19.80;96.70;;;;;;4983375;28;20560;-72
2022/09/11 11:48:11;;;;;;;44.90;34.50;;;19.90;96.30;;;;;;4981079;28;20423;-72
2022/09/11 11:50:42;;;;;;;42.13;33.93;;;19.90;96.30;;;;;;4972028;28;20461;-72
2022/09/11 11:53:34;;;;;;;44.27;32.93;;;19.90;96.20;;;;;;4963344;28;20437;-72
2022/09/11 11:56:13;;;;;;;41.43;31.83;;;19.90;96.10;;;;;;4950220;28;20475;-72
2022/09/11 11:59:01;;;;;;;43.90;32.90;;;19.90;96.10;;;;;;4962108;28;20546;-72
2022/09/11 12:01:39;;;;;;;43.17;32.53;;;19.90;96.20;;;;;;4974138;28;20494;-72
2022/09/11 12:04:27;;;;;;;40.40;32.50;;;19.90;96.30;;;;;;4970106;28;20461;-72
2022/09/11 12:06:56;;;;;;;43.27;34.07;;;20.00;96.50;;;;;;4967884;28;20819;-72
2022/09/11 12:09:30;;;;;;;43.20;33.17;;;20.00;96.40;;;;;;4974432;28;20448;-72
2022/09/11 12:12:04;;;;;;;38.73;30.33;;;20.00;96.40;;;;;;4979409;28;20518;-71
2022/09/11 12:14:38;;;;;;;40.17;29.97;;;20.00;96.40;;;;;;4975078;28;20504;-74
2022/09/11 12:17:32;;;;;;;37.70;31.03;;;20.00;96.30;;;;;;4964250;28;20454;-72
2022/09/11 12:20:10;;;;;;;38.63;30.30;;;20.10;96.30;;;;;;4941051;28;20456;-72
2022/09/11 12:22:40;;;;;;;34.83;29.33;;;20.10;96.20;;;;;;4968221;28;21189;-72
2022/09/11 12:25:18;;;;;;;36.93;29.07;;;20.10;96.20;;;;;;4965628;28;20810;-72
2022/09/11 12:27:50;;;;;;;38.80;29.37;;;20.10;96.40;;;;;;4979965;28;20460;-72
2022/09/11 12:30:22;;;;;;;32.93;27.03;;;20.10;96.40;;;;;;4953757;28;20449;-72
2022/09/11 12:33:01;;;;;;;32.10;26.77;;;20.10;96.70;;;;;;4984793;28;20443;-71
2022/09/11 12:35:39;;;;;;;33.03;26.20;;;20.20;96.70;;;;;;4979921;28;20523;-72
2022/09/11 12:38:05;;;;;;;30.93;25.83;;;20.20;96.60;;;;;;4974194;28;20455;-72
2022/09/11 12:40:53;;;;;;;27.13;23.27;;;20.20;96.40;;;;;;4969377;28;20430;-72
2022/09/11 12:43:34;;;;;;;29.80;24.27;;;20.20;96.40;;;;;;4950702;28;20729;-72
2022/09/11 12:46:11;;;;;;;27.20;23.27;;;20.30;96.40;;;;;;4945087;28;20523;-71
2022/09/11 12:48:50;;;;;;;25.63;22.50;;;20.30;96.40;;;;;;4967980;28;20534;-72
2022/09/11 12:51:37;;;;;;;26.63;22.00;;;20.30;96.30;;;;;;4978361;28;20995;-72
2022/09/11 12:54:18;;;;;;;24.10;20.87;;;20.30;96.20;;;;;;4969179;28;20894;-72
2022/09/11 12:57:07;;;;;;;26.37;22.23;;;20.40;96.10;;;;;;4969394;28;20473;-72
2022/09/11 13:00:01;;;;;;;23.07;19.73;;;20.40;96.10;;;;;;4962523;28;20499;-71
2022/09/11 13:02:36;;;;;;;24.20;21.00;;;20.40;96.00;;;;;;4962992;28;20982;-71
2022/09/11 13:05:16;;;;;;;24.07;19.97;;;20.40;95.90;;;;;;4968067;28;20519;-71
2022/09/11 13:07:49;;;;;;;22.13;19.40;;;20.50;95.90;;;;;;4953254;28;20439;-72
2022/09/11 13:10:40;;;;;;;22.60;19.83;;;20.50;95.80;;;;;;4968027;28;20440;-72
2022/09/11 13:13:33;;;;;;;23.00;19.10;;;20.50;95.70;;;;;;4954343;28;20956;-71
2022/09/11 13:16:21;;;;;;;23.07;18.00;;;20.50;95.60;;;;;;4983132;28;20457;-71
2022/09/11 13:18:50;;;;;;;23.33;19.60;;;20.60;95.50;;;;;;4954906;28;20490;-72
2022/09/11 13:21:17;;;;;;;20.83;17.07;;;20.60;95.40;;;;;;4972188;28;20461;-71